| time (UTC) | temp F | wind direction | speed MPH | gust MPH | rain 1hr in | rain 24hr in | rain mn in | humidity % | barometer mb |
| 20260508225018 | 58 | 40 | 0.0 | 5.0 | 0.00 | 0.00 | 0.00 | 71 | 1015.0 |
| 20260508224017 | 59 | 22 | 1.0 | 3.0 | 0.00 | 0.00 | 0.00 | 71 | 1015.3 |
| 20260508223019 | 59 | 30 | 0.0 | 2.0 | 0.00 | 0.00 | 0.00 | 70 | 1015.3 |
| 20260508222039 | 60 | 26 | 1.0 | 3.0 | 0.00 | 0.00 | 0.00 | 68 | 1015.2 |
| 20260508221018 | 60 | 81 | 0.0 | 2.0 | 0.00 | 0.00 | 0.00 | 68 | 1015.0 |
| 20260508220018 | 60 | 84 | 1.0 | 4.0 | 0.00 | 0.00 | 0.00 | 67 | 1015.0 |
| 20260508215020 | 60 | 56 | 0.0 | 2.0 | 0.00 | 0.00 | 0.00 | 68 | 1015.0 |
| 20260508214020 | 61 | 15 | 1.0 | 3.0 | 0.00 | 0.00 | 0.00 | 65 | 1015.2 |
| 20260508213017 | 62 | 42 | 1.0 | 3.0 | 0.00 | 0.00 | 0.00 | 65 | 1015.1 |
| 20260508212016 | 62 | 70 | 1.0 | 3.0 | 0.00 | 0.00 | 0.00 | 64 | 1015.0 |
| 20260508211016 | 61 | 73 | 1.0 | 3.0 | 0.00 | 0.00 | 0.00 | 63 | 1015.0 |
| 20260508210016 | 62 | 51 | 1.0 | 3.0 | 0.00 | 0.00 | 0.00 | 62 | 1015.0 |
| 20260508205017 | 62 | 134 | 1.0 | 4.0 | 0.00 | 0.00 | 0.00 | 62 | 1015.0 |
| 20260508204018 | 61 | 39 | 1.0 | 3.0 | 0.00 | 0.00 | 0.00 | 61 | 1014.9 |
| 20260508203017 | 62 | 88 | 1.0 | 4.0 | 0.00 | 0.00 | 0.00 | 62 | 1015.3 |
| 20260508202017 | 63 | 43 | 1.0 | 4.0 | 0.00 | 0.00 | 0.00 | 59 | 1015.4 |
| 20260508201016 | 63 | 55 | 1.0 | 5.0 | 0.00 | 0.00 | 0.00 | 59 | 1015.1 |
| 20260508200019 | 62 | 133 | 1.0 | 5.0 | 0.00 | 0.00 | 0.00 | 59 | 1015.0 |
| 20260508195017 | 61 | 118 | 1.0 | 4.0 | 0.00 | 0.00 | 0.00 | 60 | 1015.4 |
| 20260508194018 | 60 | 119 | 1.0 | 4.0 | 0.00 | 0.00 | 0.00 | 60 | 1015.7 |
| 20260508193037 | 60 | 120 | 2.0 | 4.0 | 0.00 | 0.00 | 0.00 | 62 | 1015.9 |
| 20260508192038 | 60 | 156 | 1.0 | 2.0 | 0.00 | 0.00 | 0.00 | 61 | 1016.1 |
| 20260508191017 | 60 | 129 | 1.0 | 3.0 | 0.00 | 0.00 | 0.00 | 62 | 1016.4 |
| 20260508190039 | 62 | 135 | 1.0 | 5.0 | 0.00 | 0.00 | 0.00 | 59 | 1016.3 |
| 20260508185018 | 61 | 133 | 1.0 | 4.0 | 0.00 | 0.00 | 0.00 | 60 | 1016.6 |
| 20260508184022 | 62 | 130 | 2.0 | 4.0 | 0.00 | 0.00 | 0.00 | 60 | 1016.2 |
| 20260508183019 | 61 | 131 | 1.0 | 3.0 | 0.00 | 0.00 | 0.00 | 61 | 1016.8 |
| 20260508182039 | 61 | 63 | 1.0 | 3.0 | 0.00 | 0.00 | 0.00 | 60 | 1016.6 |
| 20260508181018 | 61 | 45 | 1.0 | 3.0 | 0.00 | 0.00 | 0.00 | 59 | 1017.2 |
| 20260508180016 | 63 | 132 | 2.0 | 6.0 | 0.00 | 0.00 | 0.00 | 58 | 1016.7 |
| 20260508175016 | 63 | 50 | 1.0 | 5.0 | 0.00 | 0.00 | 0.00 | 56 | 1016.7 |
| 20260508174016 | 62 | 106 | 2.0 | 7.0 | 0.00 | 0.00 | 0.00 | 59 | 1016.9 |
| 20260508173016 | 62 | 123 | 2.0 | 5.0 | 0.00 | 0.00 | 0.00 | 57 | 1016.9 |
| 20260508172016 | 62 | 126 | 2.0 | 4.0 | 0.00 | 0.00 | 0.00 | 58 | 1016.7 |
| 20260508171016 | 61 | 121 | 2.0 | 5.0 | 0.00 | 0.00 | 0.00 | 60 | 1017.8 |
| 20260508170016 | 61 | 134 | 2.0 | 4.0 | 0.00 | 0.00 | 0.00 | 59 | 1017.2 |
| 20260508165037 | 61 | 91 | 1.0 | 4.0 | 0.00 | 0.00 | 0.00 | 60 | 1017.4 |
| 20260508164016 | 61 | 142 | 1.0 | 5.0 | 0.00 | 0.00 | 0.00 | 60 | 1018.0 |
| 20260508163058 | 61 | 138 | 3.0 | 7.0 | 0.00 | 0.00 | 0.00 | 60 | 1017.6 |
| 20260508162017 | 58 | 139 | 2.0 | 6.0 | 0.00 | 0.00 | 0.00 | 63 | 1017.4 |
| 20260508161058 | 57 | 117 | 2.0 | 6.0 | 0.00 | 0.00 | 0.00 | 65 | 1017.9 |
| 20260508160017 | 58 | 27 | 1.0 | 3.0 | 0.00 | 0.00 | 0.00 | 65 | 1018.6 |
| 20260508155019 | 58 | 133 | 2.0 | 6.0 | 0.00 | 0.00 | 0.00 | 64 | 1018.3 |
| 20260508154017 | 58 | 139 | 2.0 | 4.0 | 0.00 | 0.00 | 0.00 | 64 | 1018.7 |
| 20260508153039 | 60 | 132 | 1.0 | 7.0 | 0.00 | 0.00 | 0.00 | 62 | 1018.2 |
| 20260508152018 | 59 | 98 | 1.0 | 5.0 | 0.00 | 0.00 | 0.00 | 64 | 1018.1 |
| 20260508151018 | 59 | 103 | 2.0 | 5.0 | 0.00 | 0.00 | 0.00 | 62 | 1017.9 |
| 20260508150018 | 58 | 1 | 1.0 | 4.0 | 0.00 | 0.00 | 0.00 | 65 | 1018.4 |
| 20260508145019 | 59 | 138 | 1.0 | 7.0 | 0.00 | 0.00 | 0.00 | 62 | 1017.9 |
| 20260508144018 | 57 | 117 | 3.0 | 8.0 | 0.00 | 0.00 | 0.00 | 64 | 1017.8 |
| 20260508143018 | 59 | 153 | 1.0 | 5.0 | 0.00 | 0.00 | 0.00 | 61 | 1017.8 |
| 20260508142015 | 58 | 137 | 1.0 | 5.0 | 0.00 | 0.00 | 0.00 | 63 | 1017.8 |
| 20260508141019 | 58 | 125 | 3.0 | 9.0 | 0.00 | 0.00 | 0.00 | 64 | 1017.9 |
| 20260508140019 | 58 | 129 | 2.0 | 4.0 | 0.00 | 0.00 | 0.00 | 63 | 1018.0 |
| 20260508135016 | 58 | 94 | 2.0 | 6.0 | 0.00 | 0.00 | 0.00 | 66 | 1018.0 |
| 20260508134017 | 58 | 128 | 2.0 | 5.0 | 0.00 | 0.00 | 0.00 | 63 | 1017.9 |
| 20260508133016 | 57 | 103 | 1.0 | 4.0 | 0.00 | 0.00 | 0.00 | 64 | 1018.3 |
| 20260508132016 | 57 | 151 | 2.0 | 5.0 | 0.00 | 0.02 | 0.00 | 63 | 1017.8 |
| 20260508131017 | 57 | 128 | 2.0 | 5.0 | 0.00 | 0.03 | 0.00 | 65 | 1017.7 |
| 20260508130057 | 57 | 124 | 2.0 | 6.0 | 0.00 | 0.03 | 0.00 | 65 | 1017.6 |
| 20260508125016 | 57 | 132 | 2.0 | 4.0 | 0.00 | 0.03 | 0.00 | 65 | 1017.5 |
| 20260508124018 | 56 | 147 | 1.0 | 4.0 | 0.00 | 0.04 | 0.00 | 64 | 1017.3 |
| 20260508123039 | 56 | 138 | 0.0 | 4.0 | 0.00 | 0.04 | 0.00 | 65 | 1017.1 |
| 20260508122018 | 57 | 104 | 1.0 | 3.0 | 0.00 | 0.04 | 0.00 | 67 | 1017.2 |
| 20260508121018 | 56 | 89 | 1.0 | 3.0 | 0.00 | 0.04 | 0.00 | 67 | 1017.2 |
| 20260508120018 | 54 | 53 | 1.0 | 4.0 | 0.00 | 0.04 | 0.00 | 68 | 1017.1 |
| 20260508115018 | 52 | 264 | 1.0 | 3.0 | 0.00 | 0.04 | 0.00 | 73 | 1016.9 |
| 20260508114018 | 50 | 19 | 1.0 | 3.0 | 0.00 | 0.04 | 0.00 | 78 | 1016.8 |
| 20260508113038 | 49 | 11 | 1.0 | 2.0 | 0.00 | 0.04 | 0.00 | 81 | 1016.9 |
| 20260508112018 | 48 | 24 | 1.0 | 2.0 | 0.00 | 0.04 | 0.00 | 83 | 1016.7 |
| 20260508111018 | 48 | 32 | 1.0 | 2.0 | 0.00 | 0.05 | 0.00 | 84 | 1016.6 |
| 20260508110019 | 48 | 15 | 1.0 | 2.0 | 0.00 | 0.05 | 0.00 | 83 | 1016.4 |
| 20260508105019 | 47 | 357 | 1.0 | 2.0 | 0.00 | 0.09 | 0.00 | 84 | 1016.4 |
| 20260508104019 | 46 | 15 | 1.0 | 2.0 | 0.00 | 0.09 | 0.00 | 85 | 1016.3 |
| 20260508103039 | 46 | 12 | 1.0 | 2.0 | 0.00 | 0.09 | 0.00 | 86 | 1016.2 |
| 20260508102019 | 47 | 19 | 1.0 | 2.0 | 0.00 | 0.09 | 0.00 | 85 | 1016.1 |
| 20260508101019 | 47 | 12 | 2.0 | 4.0 | 0.00 | 0.09 | 0.00 | 86 | 1015.9 |
| 20260508100019 | 47 | 8 | 2.0 | 3.0 | 0.00 | 0.10 | 0.00 | 86 | 1015.7 |
| 20260508095019 | 47 | 12 | 1.0 | 3.0 | 0.00 | 0.11 | 0.00 | 86 | 1015.6 |
| 20260508094020 | 47 | 15 | 1.0 | 2.0 | 0.00 | 0.13 | 0.00 | 86 | 1015.6 |
| 20260508093040 | 47 | 9 | 1.0 | 3.0 | 0.00 | 0.13 | 0.00 | 86 | 1015.5 |
| 20260508092020 | 47 | 23 | 0.0 | 1.0 | 0.00 | 0.13 | 0.00 | 88 | 1015.6 |
| 20260508091020 | 47 | 48 | 1.0 | 3.0 | 0.00 | 0.13 | 0.00 | 87 | 1015.6 |
| 20260508090020 | 47 | 42 | 1.0 | 2.0 | 0.00 | 0.13 | 0.00 | 88 | 1015.5 |
| 20260508085021 | 47 | 35 | 1.0 | 2.0 | 0.00 | 0.13 | 0.00 | 87 | 1015.4 |
| 20260508084022 | 48 | 28 | 1.0 | 4.0 | 0.00 | 0.13 | 0.00 | 87 | 1015.4 |
| 20260508083020 | 48 | 37 | 1.0 | 2.0 | 0.00 | 0.13 | 0.00 | 87 | 1015.2 |
| 20260508082020 | 48 | 15 | 1.0 | 2.0 | 0.00 | 0.13 | 0.00 | 87 | 1015.2 |
| 20260508081021 | 48 | 23 | 1.0 | 3.0 | 0.00 | 0.13 | 0.00 | 88 | 1015.1 |
| 20260508080021 | 48 | 91 | 1.0 | 3.0 | 0.00 | 0.13 | 0.00 | 89 | 1015.0 |
| 20260508075021 | 48 | 21 | 1.0 | 2.0 | 0.00 | 0.13 | 0.00 | 89 | 1015.1 |
| 20260508074021 | 48 | 15 | 1.0 | 2.0 | 0.00 | 0.13 | 0.00 | 89 | 1015.1 |
| 20260508073022 | 48 | 46 | 1.0 | 3.0 | 0.00 | 0.13 | 0.00 | 88 | 1015.0 |
| 20260508072022 | 48 | 37 | 1.0 | 4.0 | 0.00 | 0.13 | 0.00 | 89 | 1014.9 |
| 20260508071021 | 48 | 73 | 1.0 | 4.0 | 0.00 | 0.14 | 0.00 | 89 | 1014.9 |
| 20260508070021 | 48 | 12 | 1.0 | 2.0 | 0.00 | 0.14 | 0.00 | 88 | 1015.0 |
| 20260508065043 | 49 | 56 | 0.0 | 3.0 | 0.00 | 0.14 | 0.00 | 88 | 1014.7 |
| 20260508064022 | 49 | 36 | 1.0 | 2.0 | 0.00 | 0.14 | 0.00 | 88 | 1014.7 |
| 20260508063022 | 49 | 84 | 1.0 | 4.0 | 0.00 | 0.14 | 0.00 | 88 | 1014.7 |
| 20260508062022 | 49 | 28 | 1.0 | 4.0 | 0.00 | 0.16 | 0.00 | 87 | 1014.7 |
| 20260508061022 | 49 | 14 | 1.0 | 2.0 | 0.00 | 0.16 | 0.00 | 87 | 1014.7 |
| 20260508060023 | 49 | 18 | 1.0 | 3.0 | 0.00 | 0.17 | 0.00 | 86 | 1014.8 |
| 20260508055119 | 49 | 75 | 1.0 | 4.0 | 0.00 | 0.17 | 0.00 | 84 | 1014.9 |
| 20260508054043 | 49 | 36 | 1.0 | 2.0 | 0.00 | 0.19 | 0.00 | 84 | 1014.8 |
| 20260508053023 | 49 | 325 | 1.0 | 4.0 | 0.00 | 0.20 | 0.00 | 84 | 1014.9 |
| 20260508052023 | 49 | 152 | 1.0 | 4.0 | 0.00 | 0.20 | 0.00 | 83 | 1014.9 |
| 20260508051043 | 50 | 22 | 1.0 | 3.0 | 0.00 | 0.21 | 0.00 | 82 | 1014.9 |
| 20260508050020 | 50 | 39 | 1.0 | 6.0 | 0.00 | 0.22 | 0.00 | 83 | 1014.7 |
| 20260508045023 | 50 | 33 | 1.0 | 4.0 | 0.00 | 0.22 | 0.00 | 83 | 1014.7 |
| 20260508044020 | 50 | 45 | 1.0 | 5.0 | 0.00 | 0.22 | 0.00 | 83 | 1014.7 |
| 20260508043026 | 50 | 28 | 2.0 | 4.0 | 0.00 | 0.22 | 0.00 | 84 | 1014.6 |
| 20260508042023 | 50 | 57 | 1.0 | 3.0 | 0.00 | 0.22 | 0.00 | 83 | 1014.6 |
| 20260508041104 | 50 | 121 | 2.0 | 4.0 | 0.00 | 0.22 | 0.00 | 82 | 1014.5 |
| 20260508040024 | 50 | 87 | 2.0 | 5.0 | 0.00 | 0.22 | 0.00 | 83 | 1014.4 |
| 20260508035024 | 50 | 60 | 2.0 | 5.0 | 0.00 | 0.22 | 0.22 | 84 | 1014.5 |
| 20260508034044 | 50 | 80 | 2.0 | 3.0 | 0.00 | 0.22 | 0.22 | 83 | 1014.6 |
| 20260508033024 | 50 | 48 | 2.0 | 5.0 | 0.00 | 0.22 | 0.22 | 82 | 1014.6 |
| 20260508032045 | 50 | 43 | 2.0 | 4.0 | 0.00 | 0.22 | 0.22 | 82 | 1014.6 |
| 20260508031025 | 51 | 35 | 2.0 | 4.0 | 0.00 | 0.22 | 0.22 | 82 | 1014.4 |
| 20260508030024 | 51 | 53 | 2.0 | 5.0 | 0.00 | 0.22 | 0.22 | 81 | 1014.2 |
| 20260508025023 | 51 | 68 | 2.0 | 6.0 | 0.00 | 0.22 | 0.22 | 82 | 1014.4 |
| 20260508024021 | 51 | 52 | 2.0 | 8.0 | 0.00 | 0.22 | 0.22 | 81 | 1014.2 |
| 20260508023025 | 51 | 80 | 2.0 | 5.0 | 0.00 | 0.22 | 0.22 | 78 | 1014.4 |
| 20260508022044 | 51 | 57 | 1.0 | 2.0 | 0.00 | 0.22 | 0.22 | 79 | 1014.5 |
| 20260508021025 | 51 | 11 | 1.0 | 3.0 | 0.00 | 0.23 | 0.22 | 80 | 1014.2 |
| 20260508020040 | 51 | 50 | 2.0 | 4.0 | 0.00 | 0.23 | 0.22 | 79 | 1014.1 |
| 20260508015045 | 51 | 28 | 1.0 | 3.0 | 0.00 | 0.24 | 0.22 | 80 | 1014.0 |
| 20260508014036 | 51 | 33 | 1.0 | 4.0 | 0.00 | 0.24 | 0.22 | 80 | 1013.7 |
| 20260508013017 | 51 | 11 | 2.0 | 5.0 | 0.00 | 0.24 | 0.22 | 79 | 1013.6 |
| 20260508012017 | 51 | 18 | 2.0 | 4.0 | 0.00 | 0.27 | 0.22 | 81 | 1013.4 |
| 20260508011017 | 51 | 25 | 2.0 | 6.0 | 0.00 | 0.28 | 0.22 | 82 | 1013.3 |
| 20260508010017 | 52 | 30 | 2.0 | 6.0 | 0.00 | 0.30 | 0.22 | 81 | 1013.2 |
| 20260508005017 | 52 | 17 | 2.0 | 4.0 | 0.00 | 0.31 | 0.22 | 82 | 1013.1 |
| 20260508004017 | 52 | 15 | 2.0 | 4.0 | 0.00 | 0.31 | 0.22 | 83 | 1012.9 |
| 20260508003019 | 52 | 13 | 2.0 | 4.0 | 0.00 | 0.32 | 0.22 | 83 | 1012.9 |
| 20260508002018 | 53 | 19 | 2.0 | 3.0 | 0.00 | 0.32 | 0.22 | 83 | 1012.8 |
| 20260508001017 | 53 | 14 | 1.0 | 4.0 | 0.00 | 0.33 | 0.22 | 82 | 1012.5 |
| 20260508000018 | 53 | 23 | 2.0 | 3.0 | 0.00 | 0.33 | 0.22 | 83 | 1012.4 |
| 20260507235018 | 53 | 13 | 1.0 | 4.0 | 0.00 | 0.35 | 0.22 | 83 | 1012.2 |
| 20260507234019 | 54 | 11 | 1.0 | 3.0 | 0.00 | 0.35 | 0.22 | 82 | 1012.2 |
| 20260507233019 | 54 | 13 | 1.0 | 3.0 | 0.00 | 0.35 | 0.22 | 82 | 1012.1 |
| 20260507232018 | 54 | 13 | 1.0 | 3.0 | 0.00 | 0.35 | 0.22 | 81 | 1012.0 |
| 20260507231018 | 55 | 3 | 1.0 | 3.0 | 0.00 | 0.37 | 0.22 | 81 | 1011.9 |
| 20260507230020 | 56 | 23 | 2.0 | 6.0 | 0.00 | 0.41 | 0.22 | 80 | 1011.9 |